createdAt,value
2019-06-26T00:00:18.712Z,100.00
2019-06-26T00:02:47.345Z,100.00
2019-06-26T00:05:16.187Z,100.00
2019-06-26T00:07:46.165Z,100.00
2019-06-26T00:10:14.799Z,100.00
2019-06-26T00:12:43.762Z,100.00
2019-06-26T00:15:12.818Z,100.00
2019-06-26T00:17:41.554Z,100.00
2019-06-26T00:20:10.295Z,100.00
2019-06-26T00:22:38.970Z,100.00
2019-06-26T00:25:07.820Z,100.00
2019-06-26T00:27:36.559Z,100.00
2019-06-26T00:30:08.862Z,100.00
2019-06-26T00:32:37.428Z,100.00
2019-06-26T00:35:06.569Z,100.00
2019-06-26T00:37:35.245Z,100.00
2019-06-26T00:40:05.205Z,100.00
2019-06-26T00:42:33.887Z,100.00
2019-06-26T00:45:02.541Z,100.00
2019-06-26T00:47:31.182Z,100.00
2019-06-26T00:49:59.828Z,100.00
2019-06-26T00:52:28.490Z,100.00
2019-06-26T00:54:56.990Z,100.00
2019-06-26T00:57:25.565Z,100.00
2019-06-26T00:59:54.321Z,100.00
2019-06-26T01:02:22.890Z,100.00
2019-06-26T01:04:53.033Z,100.00
2019-06-26T01:07:21.707Z,100.00
2019-06-26T01:09:50.343Z,100.00
2019-06-26T01:12:18.913Z,100.00
2019-06-26T01:14:47.474Z,100.00
2019-06-26T01:17:16.043Z,100.00
2019-06-26T01:19:44.804Z,100.00
2019-06-26T01:22:13.412Z,100.00
2019-06-26T01:24:41.990Z,100.00
2019-06-26T01:27:10.559Z,100.00
2019-06-26T01:29:39.239Z,100.00
2019-06-26T01:32:07.979Z,100.00
2019-06-26T01:34:36.482Z,100.00
2019-06-26T01:37:05.167Z,100.00
2019-06-26T01:39:33.813Z,100.00
2019-06-26T01:42:02.596Z,100.00
2019-06-26T01:44:31.277Z,100.00
2019-06-26T01:46:59.851Z,100.00
2019-06-26T01:49:28.495Z,100.00
2019-06-26T01:51:57.123Z,100.00
2019-06-26T01:54:25.610Z,100.00
2019-06-26T01:56:54.186Z,100.00
2019-06-26T01:59:22.865Z,100.00
2019-06-26T02:01:51.498Z,100.00
2019-06-26T02:04:20.223Z,100.00
2019-06-26T02:06:49.112Z,100.00
2019-06-26T02:09:17.617Z,100.00
2019-06-26T02:11:46.195Z,100.00
2019-06-26T02:14:30.031Z,100.00
2019-06-26T02:16:45.300Z,100.00
2019-06-26T02:19:15.543Z,100.00
2019-06-26T02:21:44.154Z,100.00
2019-06-26T02:24:12.799Z,100.00
2019-06-26T02:26:41.440Z,100.00
2019-06-26T02:29:10.211Z,100.00
2019-06-26T02:31:38.932Z,100.00
2019-06-26T02:34:07.610Z,100.00
2019-06-26T02:36:36.208Z,100.00
2019-06-26T02:39:06.657Z,100.00
2019-06-26T02:41:35.889Z,100.00
2019-06-26T02:44:04.977Z,100.00
2019-06-26T02:46:33.719Z,100.00
2019-06-26T02:49:02.366Z,100.00
2019-06-26T02:51:30.986Z,100.00
2019-06-26T02:53:59.582Z,100.00
2019-06-26T02:56:28.151Z,100.00
2019-06-26T02:58:56.863Z,100.00
2019-06-26T03:01:25.663Z,100.00
2019-06-26T03:03:54.241Z,100.00
2019-06-26T03:06:22.916Z,100.00
2019-06-26T03:08:51.556Z,100.00
2019-06-26T03:11:20.895Z,100.00
2019-06-26T03:13:49.620Z,100.00
2019-06-26T03:16:18.244Z,100.00
2019-06-26T03:18:46.905Z,100.00
2019-06-26T03:21:15.517Z,100.00
2019-06-26T03:23:44.106Z,100.00
2019-06-26T03:26:12.939Z,100.00
2019-06-26T03:28:41.530Z,100.00
2019-06-26T03:31:10.168Z,100.00
2019-06-26T03:33:38.807Z,100.00
2019-06-26T03:36:07.451Z,100.00
2019-06-26T03:38:35.942Z,100.00
2019-06-26T03:41:04.617Z,100.00
2019-06-26T03:43:35.411Z,99.63
2019-06-26T03:46:03.603Z,93.23
2019-06-26T03:48:32.135Z,87.01
2019-06-26T03:51:00.779Z,79.37
2019-06-26T03:53:29.495Z,79.37
2019-06-26T03:55:58.267Z,75.86
2019-06-26T03:58:26.764Z,72.28
2019-06-26T04:00:55.404Z,68.60
2019-06-26T04:03:24.005Z,65.70
2019-06-26T04:05:52.576Z,64.37
2019-06-26T04:08:21.213Z,63.54
2019-06-26T04:10:49.979Z,64.21
2019-06-26T04:13:18.637Z,70.37
2019-06-26T04:15:50.702Z,72.11
2019-06-26T04:18:17.598Z,73.93
2019-06-26T04:20:46.162Z,76.76
2019-06-26T04:23:14.679Z,77.85
2019-06-26T04:25:43.379Z,81.24
2019-06-26T04:28:12.852Z,82.85
2019-06-26T04:30:41.355Z,83.50
2019-06-26T04:33:09.963Z,83.97
2019-06-26T04:35:38.621Z,79.55
2019-06-26T04:38:07.251Z,75.05
2019-06-26T04:40:35.878Z,70.31
2019-06-26T04:43:04.502Z,70.15
2019-06-26T04:45:33.071Z,66.59
2019-06-26T04:48:01.663Z,65.91
2019-06-26T04:50:30.326Z,61.24
2019-06-26T04:52:58.942Z,59.05
2019-06-26T04:55:27.656Z,62.73
2019-06-26T04:57:56.148Z,66.59
2019-06-26T05:00:25.184Z,70.11
2019-06-26T05:02:53.859Z,78.21
2019-06-26T05:05:38.210Z,80.55
2019-06-26T05:07:53.806Z,84.35
2019-06-26T05:10:22.556Z,86.60
2019-06-26T05:12:51.230Z,89.23
2019-06-26T05:15:20.054Z,91.25
2019-06-26T05:17:48.679Z,93.51
2019-06-26T05:20:17.512Z,92.44
2019-06-26T05:22:46.117Z,92.38
2019-06-26T05:25:15.432Z,92.88
2019-06-26T05:27:44.074Z,90.04
2019-06-26T05:30:13.141Z,90.66
2019-06-26T05:32:41.820Z,90.50
2019-06-26T05:35:10.724Z,89.82
2019-06-26T05:37:39.433Z,89.45
2019-06-26T05:40:10.728Z,88.76
2019-06-26T05:42:39.355Z,89.02
2019-06-26T05:45:08.823Z,89.04
2019-06-26T05:47:37.469Z,90.45
2019-06-26T05:50:08.064Z,89.97
2019-06-26T05:52:36.734Z,92.35
2019-06-26T05:55:06.759Z,91.07
2019-06-26T05:57:35.386Z,91.64
2019-06-26T06:00:09.144Z,90.79
2019-06-26T06:02:37.774Z,90.87
2019-06-26T06:05:08.118Z,89.45
2019-06-26T06:07:36.727Z,90.08
2019-06-26T06:10:09.422Z,88.57
2019-06-26T06:12:38.055Z,88.53
2019-06-26T06:15:08.035Z,89.86
2019-06-26T06:17:37.082Z,86.69
2019-06-26T06:20:07.521Z,84.32
2019-06-26T06:22:36.220Z,83.75
2019-06-26T06:25:06.442Z,82.29
2019-06-26T06:27:34.934Z,81.21
2019-06-26T06:30:05.417Z,77.66
2019-06-26T06:32:34.048Z,73.81
2019-06-26T06:35:02.611Z,74.31
2019-06-26T06:37:31.132Z,73.75
2019-06-26T06:39:59.769Z,74.27
2019-06-26T06:42:28.395Z,75.95
2019-06-26T06:44:56.993Z,76.54
2019-06-26T06:47:25.554Z,77.25
2019-06-26T06:49:54.201Z,75.95
2019-06-26T06:52:22.883Z,76.97
2019-06-26T06:54:51.443Z,78.45
2019-06-26T06:57:20.097Z,75.52
2019-06-26T06:59:48.751Z,70.84
2019-06-26T07:02:17.393Z,68.97
2019-06-26T07:04:45.875Z,68.97
2019-06-26T07:07:14.539Z,70.72
2019-06-26T07:09:43.167Z,69.49
2019-06-26T07:12:11.796Z,70.60
2019-06-26T07:14:40.336Z,70.65
2019-06-26T07:17:19.900Z,70.50
2019-06-26T07:19:39.318Z,72.57
2019-06-26T07:22:07.906Z,70.51
2019-06-26T07:24:36.547Z,70.03
2019-06-26T07:27:05.168Z,72.38
2019-06-26T07:29:33.760Z,71.72
2019-06-26T07:32:02.367Z,74.24
2019-06-26T07:34:30.985Z,74.91
2019-06-26T07:36:59.652Z,75.88
2019-06-26T07:39:28.287Z,76.95
2019-06-26T07:41:56.830Z,74.22
2019-06-26T07:44:25.465Z,71.08
2019-06-26T07:46:54.090Z,69.69
2019-06-26T07:49:22.681Z,69.14
2019-06-26T07:51:51.247Z,71.41
2019-06-26T07:54:19.876Z,70.59
2019-06-26T07:56:48.589Z,70.08
2019-06-26T07:59:17.155Z,70.30
2019-06-26T08:01:45.809Z,70.65
2019-06-26T08:04:14.339Z,71.37
2019-06-26T08:06:42.955Z,74.21
2019-06-26T08:09:11.584Z,73.63
2019-06-26T08:11:40.255Z,73.23
2019-06-26T08:14:08.813Z,72.74
2019-06-26T08:16:37.302Z,74.27
2019-06-26T08:19:05.976Z,73.42
2019-06-26T08:21:34.599Z,73.96
2019-06-26T08:24:03.101Z,73.20
2019-06-26T08:26:31.610Z,73.08
2019-06-26T08:29:00.243Z,76.04
2019-06-26T08:31:28.967Z,70.80
2019-06-26T08:33:57.492Z,70.31
2019-06-26T08:36:25.994Z,68.52
2019-06-26T08:38:54.617Z,71.07
2019-06-26T08:41:23.234Z,71.07
2019-06-26T08:43:51.863Z,66.55
2019-06-26T08:46:20.481Z,64.73
2019-06-26T08:48:51.900Z,68.16
2019-06-26T08:51:19.547Z,71.62
2019-06-26T08:53:48.131Z,69.44
2019-06-26T08:56:16.802Z,70.21
2019-06-26T08:58:45.285Z,69.19
2019-06-26T09:01:13.803Z,73.00
2019-06-26T09:03:42.551Z,72.75
2019-06-26T09:06:11.178Z,74.78
2019-06-26T09:08:39.670Z,71.84
2019-06-26T09:11:08.190Z,72.62
2019-06-26T09:13:36.824Z,73.74
2019-06-26T09:16:05.447Z,75.31
2019-06-26T09:18:35.755Z,74.82
2019-06-26T09:21:04.380Z,74.12
2019-06-26T09:23:32.891Z,74.87
2019-06-26T09:26:01.505Z,74.87
2019-06-26T09:28:30.122Z,75.15
2019-06-26T09:30:58.750Z,72.38
2019-06-26T09:33:27.351Z,70.65
2019-06-26T09:35:56.090Z,69.45
2019-06-26T09:38:24.725Z,71.10
2019-06-26T09:40:53.414Z,70.72
2019-06-26T09:43:21.916Z,68.95
2019-06-26T09:45:50.402Z,67.81
2019-06-26T09:48:19.072Z,69.70
2019-06-26T09:50:47.689Z,69.38
2019-06-26T09:53:16.277Z,70.08
2019-06-26T09:55:44.926Z,70.38
2019-06-26T09:58:13.823Z,66.89
2019-06-26T10:00:42.502Z,67.00
2019-06-26T10:03:11.231Z,70.48
2019-06-26T10:05:39.860Z,69.73
2019-06-26T10:08:08.354Z,71.85
2019-06-26T10:10:36.952Z,68.98
2019-06-26T10:13:05.571Z,69.57
2019-06-26T10:15:34.185Z,71.12
2019-06-26T10:18:02.786Z,69.90
2019-06-26T10:20:31.267Z,69.52
2019-06-26T10:22:59.919Z,70.93
2019-06-26T10:25:28.567Z,73.30
2019-06-26T10:27:57.123Z,71.57
2019-06-26T10:30:25.748Z,69.60
2019-06-26T10:32:54.413Z,70.55
2019-06-26T10:35:23.041Z,70.46
2019-06-26T10:37:51.613Z,72.21
2019-06-26T10:40:20.699Z,68.83
2019-06-26T10:42:49.245Z,68.25
2019-06-26T10:45:18.274Z,68.27
2019-06-26T10:47:46.944Z,68.69
2019-06-26T10:50:16.254Z,68.82
2019-06-26T10:52:44.948Z,69.26
2019-06-26T10:55:13.705Z,67.18
2019-06-26T10:57:42.344Z,69.11
2019-06-26T11:00:11.809Z,68.95
2019-06-26T11:02:40.485Z,67.26
2019-06-26T11:05:09.807Z,66.10
2019-06-26T11:07:38.440Z,68.58
2019-06-26T11:10:08.717Z,69.69
2019-06-26T11:12:37.357Z,68.41
2019-06-26T11:15:07.719Z,68.33
2019-06-26T11:17:36.448Z,68.29
2019-06-26T11:20:07.723Z,70.28
2019-06-26T11:22:36.492Z,68.55
2019-06-26T11:25:07.250Z,68.03
2019-06-26T11:27:35.867Z,69.60
2019-06-26T11:30:09.615Z,69.71
2019-06-26T11:32:38.291Z,67.10
2019-06-26T11:35:07.929Z,69.16
2019-06-26T11:37:36.749Z,72.41
2019-06-26T11:40:09.332Z,71.54
2019-06-26T11:42:37.953Z,69.10
2019-06-26T11:45:09.842Z,70.61
2019-06-26T11:47:38.599Z,68.70
2019-06-26T11:50:11.650Z,69.45
2019-06-26T11:52:40.698Z,68.95
2019-06-26T11:55:09.766Z,66.17
2019-06-26T11:57:38.389Z,68.88
2019-06-26T12:00:09.878Z,68.67
2019-06-26T12:02:38.464Z,69.85
2019-06-26T12:05:07.934Z,67.20
2019-06-26T12:07:36.641Z,66.28
2019-06-26T12:10:09.777Z,68.30
2019-06-26T12:12:38.638Z,67.83
2019-06-26T12:15:07.766Z,67.83
2019-06-26T12:17:36.443Z,67.60
2019-06-26T12:20:17.837Z,65.49
2019-06-26T12:22:37.559Z,67.19
2019-06-26T12:25:07.077Z,66.37
2019-06-26T12:27:35.688Z,65.82
2019-06-26T12:30:06.115Z,63.71
2019-06-26T12:32:41.878Z,64.63
2019-06-26T12:35:06.436Z,66.17
2019-06-26T12:37:38.091Z,66.79
2019-06-26T12:40:07.373Z,64.04
2019-06-26T12:42:35.937Z,64.89
2019-06-26T12:45:07.097Z,65.34
2019-06-26T12:47:35.757Z,66.30
2019-06-26T12:50:06.781Z,65.33
2019-06-26T12:52:35.343Z,66.60
2019-06-26T12:55:07.875Z,66.78
2019-06-26T12:57:36.506Z,66.55
2019-06-26T13:00:09.666Z,67.76
2019-06-26T13:02:38.146Z,65.85
2019-06-26T13:05:07.612Z,66.57
2019-06-26T13:07:36.279Z,66.19
2019-06-26T13:10:07.745Z,66.67
2019-06-26T13:12:36.836Z,67.40
2019-06-26T13:15:07.633Z,67.45
2019-06-26T13:17:36.289Z,66.45
2019-06-26T13:20:10.162Z,67.65
2019-06-26T13:22:38.367Z,66.17
2019-06-26T13:25:10.169Z,67.55
2019-06-26T13:27:38.799Z,63.93
2019-06-26T13:30:08.373Z,65.00
2019-06-26T13:32:36.997Z,63.23
2019-06-26T13:35:08.706Z,64.99
2019-06-26T13:37:37.424Z,65.91
2019-06-26T13:40:07.566Z,65.15
2019-06-26T13:42:36.195Z,65.43
2019-06-26T13:45:07.199Z,66.79
2019-06-26T13:47:35.780Z,64.12
2019-06-26T13:50:08.824Z,64.61
2019-06-26T13:52:37.556Z,65.01
2019-06-26T13:55:06.885Z,63.10
2019-06-26T13:57:35.554Z,63.88
2019-06-26T14:00:06.586Z,63.43
2019-06-26T14:02:35.145Z,65.01
2019-06-26T14:05:03.864Z,64.62
2019-06-26T14:07:32.463Z,65.47
2019-06-26T14:10:01.180Z,64.94
2019-06-26T14:12:29.694Z,64.46
2019-06-26T14:14:58.431Z,64.65
2019-06-26T14:17:27.056Z,64.54
2019-06-26T14:19:55.741Z,67.24
2019-06-26T14:22:24.380Z,65.27
2019-06-26T14:24:54.259Z,64.97
2019-06-26T14:27:23.102Z,64.37
2019-06-26T14:29:51.735Z,66.66
2019-06-26T14:32:20.350Z,65.57
2019-06-26T14:34:48.885Z,66.08
2019-06-26T14:37:17.541Z,63.62
2019-06-26T14:39:46.090Z,64.82
2019-06-26T14:42:14.745Z,66.20
2019-06-26T14:44:43.301Z,65.29
2019-06-26T14:47:11.854Z,65.80
2019-06-26T14:49:40.502Z,66.52
2019-06-26T14:52:09.146Z,65.60
2019-06-26T14:54:37.778Z,65.65
2019-06-26T14:57:06.369Z,67.04
2019-06-26T14:59:34.895Z,65.13
2019-06-26T15:02:03.529Z,64.87
2019-06-26T15:04:32.198Z,65.28
2019-06-26T15:07:00.703Z,63.68
2019-06-26T15:09:29.265Z,63.73
2019-06-26T15:11:57.901Z,64.83
2019-06-26T15:14:26.527Z,64.95
2019-06-26T15:16:55.055Z,65.13
2019-06-26T15:19:23.802Z,64.42
2019-06-26T15:21:58.350Z,64.88
2019-06-26T15:24:22.615Z,65.32
2019-06-26T15:26:51.298Z,65.62
2019-06-26T15:29:19.925Z,65.59
2019-06-26T15:31:48.455Z,64.77
2019-06-26T15:34:16.942Z,66.05
2019-06-26T15:36:45.632Z,64.80
2019-06-26T15:39:14.347Z,64.23
2019-06-26T15:41:42.843Z,64.65
2019-06-26T15:44:11.483Z,65.42
2019-06-26T15:46:40.155Z,66.86
2019-06-26T15:49:08.877Z,68.42
2019-06-26T15:51:37.457Z,67.32
2019-06-26T15:54:06.133Z,67.14
2019-06-26T15:56:34.773Z,66.50
2019-06-26T15:59:03.265Z,66.05
2019-06-26T16:01:31.932Z,65.93
2019-06-26T16:04:00.575Z,67.26
2019-06-26T16:06:29.125Z,66.64
2019-06-26T16:08:57.653Z,66.47
2019-06-26T16:11:26.382Z,66.80
2019-06-26T16:13:55.012Z,66.52
2019-06-26T16:16:24.408Z,66.75
2019-06-26T16:18:54.547Z,67.11
2019-06-26T16:21:23.179Z,66.85
2019-06-26T16:23:51.898Z,66.80
2019-06-26T16:26:20.387Z,67.11
2019-06-26T16:28:48.948Z,67.76
2019-06-26T16:31:17.706Z,68.06
2019-06-26T16:33:46.330Z,66.88
2019-06-26T16:36:15.057Z,67.62
2019-06-26T16:38:43.718Z,68.07
2019-06-26T16:41:12.348Z,67.75
2019-06-26T16:43:40.846Z,68.73
2019-06-26T16:46:09.534Z,69.52
2019-06-26T16:48:38.190Z,69.46
2019-06-26T16:51:06.814Z,68.00
2019-06-26T16:53:35.782Z,70.16
2019-06-26T16:56:04.460Z,69.25
2019-06-26T16:58:33.108Z,69.51
2019-06-26T17:01:01.701Z,70.11
2019-06-26T17:03:30.193Z,70.67
2019-06-26T17:05:58.834Z,71.44
2019-06-26T17:08:27.545Z,71.58
2019-06-26T17:10:56.071Z,72.78
2019-06-26T17:13:24.630Z,72.03
2019-06-26T17:15:53.291Z,71.77
2019-06-26T17:18:21.915Z,72.52
2019-06-26T17:20:50.562Z,72.21
2019-06-26T17:23:19.188Z,72.80
2019-06-26T17:25:47.868Z,72.38
2019-06-26T17:28:16.515Z,72.48
2019-06-26T17:30:45.337Z,73.98
2019-06-26T17:33:13.842Z,73.70
2019-06-26T17:35:42.574Z,74.11
2019-06-26T17:38:11.243Z,74.39
2019-06-26T17:40:39.793Z,74.38
2019-06-26T17:43:12.783Z,75.45
2019-06-26T17:45:38.660Z,74.58
2019-06-26T17:48:07.292Z,76.31
2019-06-26T17:50:35.787Z,76.81
2019-06-26T17:53:17.502Z,77.96
2019-06-26T17:55:34.749Z,78.18
2019-06-26T17:58:03.275Z,79.20
2019-06-26T18:00:36.399Z,79.37
2019-06-26T18:03:05.527Z,79.83
2019-06-26T18:05:34.090Z,80.02
2019-06-26T18:08:02.626Z,81.79
2019-06-26T18:10:31.248Z,80.78
2019-06-26T18:12:59.882Z,81.66
2019-06-26T18:15:28.405Z,82.36
2019-06-26T18:17:57.038Z,82.29
2019-06-26T18:20:25.688Z,82.43
2019-06-26T18:23:06.386Z,82.79
2019-06-26T18:25:26.821Z,82.91
2019-06-26T18:27:55.316Z,83.22
2019-06-26T18:30:24.184Z,83.12
2019-06-26T18:32:52.826Z,84.45
2019-06-26T18:35:21.452Z,84.35
2019-06-26T18:37:50.116Z,85.07
2019-06-26T18:40:18.787Z,85.09
2019-06-26T18:42:47.277Z,85.59
2019-06-26T18:45:15.966Z,85.85
2019-06-26T18:47:44.603Z,86.02
2019-06-26T18:50:13.931Z,85.22
2019-06-26T18:52:42.508Z,85.37
2019-06-26T18:55:11.155Z,86.06
2019-06-26T18:57:39.845Z,86.63
2019-06-26T19:00:09.228Z,87.62
2019-06-26T19:02:37.789Z,88.34
2019-06-26T19:05:08.138Z,88.66
2019-06-26T19:07:36.807Z,89.01
2019-06-26T19:10:07.961Z,89.33
2019-06-26T19:12:37.896Z,89.22
2019-06-26T19:15:07.162Z,89.02
2019-06-26T19:17:35.911Z,89.00
2019-06-26T19:20:06.779Z,89.35
2019-06-26T19:22:35.437Z,88.45
2019-06-26T19:25:05.473Z,88.73
2019-06-26T19:27:33.970Z,88.40
2019-06-26T19:30:03.080Z,89.27
2019-06-26T19:32:31.725Z,89.01
2019-06-26T19:35:08.181Z,89.14
2019-06-26T19:37:30.547Z,89.18
2019-06-26T19:39:59.168Z,89.35
2019-06-26T19:42:27.904Z,88.85
2019-06-26T19:44:56.449Z,88.61
2019-06-26T19:47:24.941Z,88.04
2019-06-26T19:49:53.580Z,88.81
2019-06-26T19:52:22.237Z,89.31
2019-06-26T19:54:50.736Z,88.58
2019-06-26T19:57:19.372Z,89.52
2019-06-26T19:59:48.054Z,89.54
2019-06-26T20:02:16.688Z,88.78
2019-06-26T20:04:48.145Z,89.10
2019-06-26T20:07:15.667Z,88.47
2019-06-26T20:09:44.285Z,88.83
2019-06-26T20:12:12.948Z,88.12
2019-06-26T20:14:41.521Z,88.33
2019-06-26T20:17:10.078Z,88.14
2019-06-26T20:19:38.716Z,88.65
2019-06-26T20:22:07.968Z,89.13
2019-06-26T20:24:43.977Z,88.92
2019-06-26T20:27:06.724Z,88.64
2019-06-26T20:29:35.456Z,89.13
2019-06-26T20:32:04.021Z,88.87
2019-06-26T20:34:32.513Z,89.18
2019-06-26T20:37:01.200Z,89.39
2019-06-26T20:39:29.766Z,89.91
2019-06-26T20:41:58.345Z,90.87
2019-06-26T20:44:27.003Z,91.87
2019-06-26T20:46:55.644Z,94.18
2019-06-26T20:49:24.185Z,94.99
2019-06-26T20:51:53.422Z,96.38
2019-06-26T20:54:22.061Z,98.00
2019-06-26T20:56:50.701Z,99.48
2019-06-26T20:59:19.321Z,100.00
2019-06-26T21:01:47.833Z,100.00
2019-06-26T21:04:16.457Z,100.00
2019-06-26T21:06:45.145Z,100.00
2019-06-26T21:09:13.646Z,100.00
2019-06-26T21:11:42.201Z,100.00
2019-06-26T21:14:10.888Z,100.00
2019-06-26T21:16:39.550Z,100.00
2019-06-26T21:19:08.701Z,100.00
2019-06-26T21:21:37.580Z,100.00
2019-06-26T21:24:06.242Z,100.00
2019-06-26T21:26:34.819Z,100.00
2019-06-26T21:29:03.516Z,100.00
2019-06-26T21:31:32.139Z,100.00
2019-06-26T21:34:01.318Z,100.00
2019-06-26T21:36:29.914Z,100.00
2019-06-26T21:38:58.585Z,100.00
2019-06-26T21:41:27.218Z,100.00
2019-06-26T21:43:55.788Z,100.00
2019-06-26T21:46:24.285Z,100.00
2019-06-26T21:48:52.959Z,100.00
2019-06-26T21:51:21.604Z,100.00
2019-06-26T21:53:50.111Z,100.00
2019-06-26T21:56:18.934Z,100.00
2019-06-26T21:58:47.437Z,100.00
2019-06-26T22:01:16.012Z,100.00
2019-06-26T22:03:44.759Z,100.00
2019-06-26T22:06:13.497Z,100.00
2019-06-26T22:08:41.998Z,100.00
2019-06-26T22:11:10.528Z,100.00
2019-06-26T22:13:39.168Z,100.00
2019-06-26T22:16:07.918Z,100.00
2019-06-26T22:18:36.461Z,100.00
2019-06-26T22:21:05.191Z,100.00
2019-06-26T22:23:33.844Z,100.00
2019-06-26T22:26:02.576Z,100.00
2019-06-26T22:28:31.147Z,100.00
2019-06-26T22:30:59.797Z,100.00
2019-06-26T22:33:28.475Z,100.00
2019-06-26T22:35:57.116Z,100.00
2019-06-26T22:38:25.761Z,100.00
2019-06-26T22:40:54.430Z,100.00
2019-06-26T22:43:23.083Z,100.00
2019-06-26T22:45:51.731Z,100.00
2019-06-26T22:48:20.338Z,100.00
2019-06-26T22:50:49.001Z,100.00
2019-06-26T22:53:17.695Z,100.00
2019-06-26T22:55:46.457Z,100.00
2019-06-26T22:58:15.096Z,100.00
2019-06-26T23:00:46.850Z,100.00
2019-06-26T23:03:14.142Z,100.00
2019-06-26T23:05:42.793Z,100.00
2019-06-26T23:08:11.377Z,100.00
2019-06-26T23:10:39.897Z,100.00
2019-06-26T23:13:09.687Z,100.00
2019-06-26T23:15:38.474Z,100.00
2019-06-26T23:18:07.114Z,100.00
2019-06-26T23:20:35.761Z,100.00
2019-06-26T23:23:04.341Z,100.00
2019-06-26T23:25:32.859Z,100.00
2019-06-26T23:28:01.540Z,100.00
2019-06-26T23:30:30.198Z,100.00
2019-06-26T23:32:58.704Z,100.00
2019-06-26T23:35:27.328Z,100.00
2019-06-26T23:37:55.981Z,100.00
2019-06-26T23:40:24.632Z,100.00
2019-06-26T23:42:53.231Z,100.00
2019-06-26T23:45:21.807Z,100.00
2019-06-26T23:47:50.449Z,100.00
2019-06-26T23:50:19.141Z,100.00
2019-06-26T23:52:47.643Z,100.00
2019-06-26T23:55:16.286Z,100.00
2019-06-26T23:57:58.498Z,100.00
